Time;durP1;ratioP1;P1;durP2;ratioP2;P2;SDS_P1;SDS_P2;PMS_P1;PMS_P2;Temp;Humidity;BMP_temperature;BMP_pressure;BME280_temperature;BME280_humidity;BME280_pressure;Samples;Min_cycle;Max_cycle;Signal;HPM_P1;HPM_P2
2023/12/20 00:00:53;;;;;;;1.83;1.50;;;;;;;5.60;100.00;150076.25;13055397;22;20011;-79
2023/12/20 00:05:55;;;;;;;2.90;2.08;;;;;;;5.43;100.00;150035.09;13087668;22;20020;-80
2023/12/20 00:10:57;;;;;;;1.63;1.45;;;;;;;5.48;100.00;150046.66;13073535;22;20042;-80
2023/12/20 00:15:59;;;;;;;1.67;1.58;;;;;;;5.35;100.00;150014.50;13072553;22;20023;-80
2023/12/20 00:21:00;;;;;;;1.55;1.35;;;;;;;5.28;100.00;149997.81;13083338;22;20041;-78
2023/12/20 00:26:02;;;;;;;1.30;0.95;;;;;;;5.27;100.00;149993.97;13100321;22;20019;-80
2023/12/20 00:31:04;;;;;;;1.55;1.10;;;;;;;5.22;100.00;149981.06;13060288;22;20078;-80
2023/12/20 00:36:06;;;;;;;1.25;0.93;;;;;;;5.21;100.00;149978.50;13046432;22;20068;-79
2023/12/20 00:41:08;;;;;;;1.35;1.10;;;;;;;5.14;100.00;149960.53;13101420;22;20023;-79
2023/12/20 00:46:10;;;;;;;1.92;1.10;;;;;;;4.98;100.00;149921.94;13079305;22;20039;-79
2023/12/20 00:51:11;;;;;;;1.05;0.95;;;;;;;4.97;100.00;149919.38;13102137;22;19996;-80
2023/12/20 00:56:13;;;;;;;1.25;1.05;;;;;;;4.94;100.00;149911.66;13073964;22;20429;-79
2023/12/20 01:01:15;;;;;;;0.98;0.90;;;;;;;4.88;100.00;149896.25;13065184;22;20012;-80
2023/12/20 01:06:17;;;;;;;0.80;0.77;;;;;;;4.92;100.00;149906.53;13070217;22;20175;-80
2023/12/20 01:11:19;;;;;;;4.05;0.85;;;;;;;4.81;100.00;149879.53;13077547;22;20007;-79
2023/12/20 01:16:20;;;;;;;0.80;0.73;;;;;;;4.85;100.00;149888.53;13048855;22;20019;-79
2023/12/20 01:21:23;;;;;;;0.70;0.70;;;;;;;4.79;100.00;149874.41;13075006;22;20412;-79
2023/12/20 01:26:25;;;;;;;0.80;0.77;;;;;;;4.79;100.00;149874.41;13079657;22;20038;-79
2023/12/20 01:31:27;;;;;;;1.00;0.88;;;;;;;4.74;100.00;149861.56;13080646;22;20026;-80
2023/12/20 01:36:29;;;;;;;1.00;0.70;;;;;;;4.77;100.00;149867.94;13030839;22;20015;-78
2023/12/20 01:41:30;;;;;;;0.85;0.82;;;;;;;4.60;100.00;149824.25;13085324;22;20019;-80
2023/12/20 01:46:32;;;;;;;0.60;0.60;;;;;;;4.68;100.00;149844.81;13080767;22;20035;-80
2023/12/20 01:51:35;;;;;;;0.98;0.73;;;;;;;4.71;100.00;149853.81;13053145;22;20094;-79
2023/12/20 01:56:39;;;;;;;0.93;0.60;;;;;;;4.64;100.00;149834.53;13076257;22;20461;-80
2023/12/20 02:01:40;;;;;;;0.60;0.60;;;;;;;4.63;100.00;149833.25;13072938;22;20041;-81
2023/12/20 02:06:45;;;;;;;0.45;0.45;;;;;;;4.53;100.00;149808.84;13089401;22;20000;-81
2023/12/20 02:11:47;;;;;;;0.50;0.50;;;;;;;4.61;100.00;149826.84;13056352;22;20019;-80
2023/12/20 02:16:49;;;;;;;0.50;0.50;;;;;;;4.55;100.00;149813.97;13075662;22;20019;-80
2023/12/20 02:22:05;;;;;;;0.40;0.40;;;;;;;4.45;100.00;149788.28;13084834;22;20025;-82
2023/12/20 02:27:07;;;;;;;0.50;0.50;;;;;;;4.49;100.00;149798.56;13113171;22;20031;-80
2023/12/20 02:32:09;;;;;;;0.45;0.40;;;;;;;4.48;100.00;149794.72;13112033;22;20027;-81
2023/12/20 02:37:11;;;;;;;0.50;0.50;;;;;;;4.50;100.00;149799.84;13112024;22;20026;-79
2023/12/20 02:42:13;;;;;;;0.75;0.40;;;;;;;4.47;100.00;149792.13;13077514;22;20026;-83
2023/12/20 02:47:15;;;;;;;0.50;0.50;;;;;;;4.46;100.00;149789.56;13052161;22;20030;-82
2023/12/20 02:52:16;;;;;;;0.30;0.30;;;;;;;4.37;100.00;149767.72;13055796;22;20015;-83
2023/12/20 02:57:18;;;;;;;0.40;0.40;;;;;;;4.45;100.00;149787.00;13080115;22;20019;-82
2023/12/20 03:02:20;;;;;;;0.50;0.50;;;;;;;4.41;100.00;149778.00;13079850;22;20015;-83
2023/12/20 03:07:21;;;;;;;0.40;0.30;;;;;;;4.45;100.00;149788.28;13051496;22;20019;-82
2023/12/20 03:12:23;;;;;;;0.30;0.30;;;;;;;4.38;100.00;149770.28;13076608;22;20409;-81
2023/12/20 03:17:25;;;;;;;0.28;0.28;;;;;;;4.39;100.00;149771.59;13076342;22;20035;-83
2023/12/20 03:22:27;;;;;;;0.30;0.30;;;;;;;4.40;100.00;149775.44;13075667;22;20483;-83
2023/12/20 03:27:28;;;;;;;0.30;0.30;;;;;;;4.39;100.00;149772.88;13090136;22;20333;-82
2023/12/20 03:32:30;;;;;;;0.30;0.30;;;;;;;4.32;100.00;149753.59;13103208;22;20011;-81
2023/12/20 03:37:32;;;;;;;0.50;0.50;;;;;;;4.40;100.00;149775.44;13079375;22;20445;-81
2023/12/20 03:42:33;;;;;;;0.40;0.40;;;;;;;4.37;100.00;149766.44;13075571;22;20012;-82
2023/12/20 03:47:35;;;;;;;0.30;0.30;;;;;;;4.39;100.00;149771.59;13082771;22;20023;-82
2023/12/20 03:52:37;;;;;;;0.32;0.30;;;;;;;4.30;100.00;149751.03;13093942;22;20015;-81
2023/12/20 03:57:38;;;;;;;0.28;0.25;;;;;;;4.36;100.00;149765.16;13082207;22;20022;-82
2023/12/20 04:02:41;;;;;;;0.30;0.30;;;;;;;4.41;100.00;149778.00;13054121;22;20015;-82
2023/12/20 04:07:43;;;;;;;0.30;0.30;;;;;;;4.32;100.00;149754.88;13081537;22;20015;-79
2023/12/20 04:12:45;;;;;;;0.20;0.20;;;;;;;4.36;100.00;149765.16;13067952;22;20011;-81
2023/12/20 04:17:47;;;;;;;0.30;0.30;;;;;;;4.38;100.00;149769.00;13077467;22;20026;-81
2023/12/20 04:22:49;;;;;;;0.45;0.40;;;;;;;4.35;100.00;149761.31;13077373;22;20011;-81
2023/12/20 04:27:51;;;;;;;1.17;0.30;;;;;;;4.40;100.00;149775.44;13098092;22;19999;-82
2023/12/20 04:32:53;;;;;;;0.55;0.40;;;;;;;4.44;100.00;149785.72;13108723;22;20011;-82
2023/12/20 04:37:55;;;;;;;0.30;0.30;;;;;;;4.42;100.00;149779.28;13110732;22;20018;-82
2023/12/20 04:42:56;;;;;;;0.38;0.38;;;;;;;4.53;100.00;149808.84;13111038;22;19996;-82
2023/12/20 04:47:58;;;;;;;0.35;0.35;;;;;;;4.42;100.00;149780.56;13110710;22;20015;-82
2023/12/20 04:53:00;;;;;;;0.50;0.50;;;;;;;4.44;100.00;149785.72;13102150;22;20022;-81
2023/12/20 04:58:02;;;;;;;0.50;0.40;;;;;;;4.43;100.00;149781.88;13093974;22;20025;-82
2023/12/20 05:03:04;;;;;;;0.40;0.40;;;;;;;4.52;100.00;149805.00;13090418;22;20011;-82
2023/12/20 05:08:06;;;;;;;0.43;0.40;;;;;;;4.52;100.00;149806.28;13055348;22;20037;-83
2023/12/20 05:13:08;;;;;;;0.40;0.40;;;;;;;4.51;100.00;149803.69;13052451;22;20023;-82
2023/12/20 05:18:10;;;;;;;0.47;0.40;;;;;;;4.50;100.00;149799.84;13077341;22;20019;-83
2023/12/20 05:23:13;;;;;;;0.30;0.30;;;;;;;4.53;100.00;149807.56;13048847;22;20038;-83
2023/12/20 05:28:15;;;;;;;0.38;0.38;;;;;;;4.55;100.00;149812.69;13073286;22;20096;-83
2023/12/20 05:33:17;;;;;;;0.30;0.30;;;;;;;4.50;100.00;149799.84;13073731;22;20472;-83
2023/12/20 05:38:18;;;;;;;0.30;0.30;;;;;;;4.52;100.00;149806.28;13073882;22;20035;-81
2023/12/20 05:43:20;;;;;;;0.40;0.40;;;;;;;4.59;100.00;149821.69;13075938;22;20472;-83
2023/12/20 05:48:22;;;;;;;0.35;0.30;;;;;;;4.53;100.00;149807.56;13075477;22;20015;-83
2023/12/20 05:53:24;;;;;;;0.57;0.38;;;;;;;4.58;100.00;149819.13;13078362;22;20094;-83
2023/12/20 05:58:26;;;;;;;0.57;0.40;;;;;;;4.66;100.00;149840.97;13060614;22;20030;-82
2023/12/20 06:03:27;;;;;;;0.30;0.30;;;;;;;4.70;100.00;149850.00;13100141;22;20023;-83
2023/12/20 06:08:29;;;;;;;0.55;0.55;;;;;;;4.75;100.00;149862.84;13083530;22;20026;-81
2023/12/20 06:13:31;;;;;;;0.43;0.43;;;;;;;4.67;100.00;149842.25;13090695;22;20011;-81
2023/12/20 06:18:33;;;;;;;0.40;0.40;;;;;;;4.66;100.00;149840.97;13082251;22;20370;-83
2023/12/20 06:23:34;;;;;;;0.40;0.40;;;;;;;4.72;100.00;149855.09;13054552;22;20011;-81
2023/12/20 06:28:36;;;;;;;1.15;0.50;;;;;;;4.68;100.00;149844.81;13054232;22;20360;-82
2023/12/20 06:33:43;;;;;;;0.93;0.60;;;;;;;4.77;100.00;149867.94;13085099;22;20015;-83
2023/12/20 06:38:46;;;;;;;0.50;0.50;;;;;;;4.85;100.00;149888.53;13083479;22;20075;-83
2023/12/20 06:43:47;;;;;;;0.50;0.50;;;;;;;4.77;100.00;149867.94;13081827;22;20015;-81
2023/12/20 06:48:51;;;;;;;0.50;0.50;;;;;;;4.88;100.00;149894.97;13083145;22;20042;-81
2023/12/20 06:53:53;;;;;;;0.57;0.57;;;;;;;4.88;100.00;149894.97;13086014;22;20014;-81
2023/12/20 06:58:54;;;;;;;0.93;0.60;;;;;;;4.85;100.00;149888.53;13086780;22;20022;-83
2023/12/20 07:03:56;;;;;;;0.60;0.60;;;;;;;4.98;100.00;149920.66;13066077;22;20019;-83
2023/12/20 07:08:58;;;;;;;1.02;0.80;;;;;;;4.99;100.00;149924.50;13101645;22;20019;-83
2023/12/20 07:14:00;;;;;;;0.70;0.70;;;;;;;4.90;100.00;149901.38;13101505;22;20015;-82
2023/12/20 07:19:03;;;;;;;1.33;1.20;;;;;;;4.83;100.00;149883.41;13094374;22;20016;-82
2023/12/20 07:24:05;;;;;;;0.80;0.73;;;;;;;4.76;100.00;149866.66;13091071;22;20023;-83
2023/12/20 07:29:06;;;;;;;1.00;0.90;;;;;;;4.97;100.00;149919.38;13053668;22;20079;-83
2023/12/20 07:34:08;;;;;;;1.13;1.02;;;;;;;4.90;100.00;149901.38;13086127;22;20020;-84
2023/12/20 07:39:10;;;;;;;0.80;0.80;;;;;;;5.02;100.00;149932.25;13089951;22;20015;-84
2023/12/20 07:44:12;;;;;;;1.35;1.10;;;;;;;5.01;100.00;149928.41;13058899;22;20345;-83
2023/12/20 07:49:13;;;;;;;0.90;0.90;;;;;;;5.00;100.00;149925.78;13084062;22;20021;-82
2023/12/20 07:54:16;;;;;;;1.45;1.35;;;;;;;5.00;100.00;149927.13;13085140;22;20464;-83
2023/12/20 07:59:17;;;;;;;1.38;1.23;;;;;;;4.91;100.00;149903.94;13084416;22;20019;-83
2023/12/20 08:04:32;;;;;;;1.20;1.10;;;;;;;4.85;100.00;149888.53;13085981;22;20011;-82
2023/12/20 08:09:36;;;;;;;5.07;1.38;;;;;;;4.85;100.00;149887.25;13089532;22;20086;-83
2023/12/20 08:14:38;;;;;;;1.25;1.15;;;;;;;4.83;100.00;149882.13;13086107;22;20071;-82
2023/12/20 08:19:40;;;;;;;1.40;1.00;;;;;;;4.92;100.00;149905.25;13094782;22;20015;-83
2023/12/20 08:24:41;;;;;;;2.35;1.13;;;;;;;5.15;100.00;149963.09;13077907;22;20073;-85
2023/12/20 08:29:45;;;;;;;1.88;0.88;;;;;;;5.15;100.00;149963.09;13071565;22;20037;-82
2023/12/20 08:34:49;;;;;;;1.10;0.77;;;;;;;5.33;100.00;150009.38;13069601;22;20019;-82
2023/12/20 08:39:51;;;;;;;0.70;0.70;;;;;;;5.39;100.00;150023.50;13070096;22;20022;-82
2023/12/20 08:44:53;;;;;;;2.05;0.80;;;;;;;5.29;100.00;150000.38;13070883;22;20042;-84
2023/12/20 08:49:59;;;;;;;1.75;0.63;;;;;;;5.49;100.00;150050.56;13019901;22;20065;-81
2023/12/20 08:55:01;;;;;;;;;;;;;;;5.53;100.00;150060.84;13073841;22;20015;-82
2023/12/20 09:00:04;;;;;;;1.55;0.57;;;;;;;5.61;95.42;150080.09;13071084;22;19929;-82
2023/12/20 09:05:08;;;;;;;1.10;0.50;;;;;;;5.66;91.62;150091.66;13063729;22;20360;-78
2023/12/20 09:10:10;;;;;;;0.30;0.20;;;;;;;5.78;90.01;150122.56;13061075;22;20046;-78
2023/12/20 09:15:12;;;;;;;0.85;0.40;;;;;;;5.80;91.49;150129.00;13066206;22;20011;-79
2023/12/20 09:20:14;;;;;;;0.63;0.40;;;;;;;6.06;88.90;150193.34;13072699;22;20022;-79
2023/12/20 09:25:17;;;;;;;0.60;0.50;;;;;;;6.04;91.06;150189.50;13071407;22;20015;-78
2023/12/20 09:30:20;;;;;;;0.68;0.45;;;;;;;6.05;91.55;150190.78;13046886;22;20023;-79
2023/12/20 09:35:28;;;;;;;0.65;0.45;;;;;;;6.05;91.71;150190.78;13080822;22;20023;-79
2023/12/20 09:40:32;;;;;;;1.95;0.60;;;;;;;6.10;92.42;150203.63;13067740;22;20098;-79
2023/12/20 09:45:34;;;;;;;0.93;0.50;;;;;;;5.90;92.35;150153.44;13037341;22;20388;-79
2023/12/20 09:50:36;;;;;;;1.35;0.57;;;;;;;5.87;93.19;150144.41;13046583;22;20026;-79
2023/12/20 09:55:40;;;;;;;1.02;0.60;;;;;;;5.82;92.84;150132.84;13077036;22;20097;-79
2023/12/20 10:00:42;;;;;;;2.85;0.82;;;;;;;5.87;91.90;150144.41;13051996;22;20027;-78
2023/12/20 10:05:44;;;;;;;1.42;0.60;;;;;;;5.88;90.50;150147.00;13068918;22;20043;-78
2023/12/20 10:10:46;;;;;;;1.20;0.50;;;;;;;5.90;91.60;150152.16;13059398;22;20391;-78
2023/12/20 10:15:49;;;;;;;0.75;0.40;;;;;;;5.82;91.74;150132.84;13055339;22;20011;-79
2023/12/20 10:20:51;;;;;;;1.65;0.60;;;;;;;5.94;90.72;150163.78;13063290;22;20015;-78
2023/12/20 10:25:59;;;;;;;1.42;0.55;;;;;;;6.00;88.46;150177.94;13069427;22;20098;-78
2023/12/20 10:31:01;;;;;;;1.25;0.52;;;;;;;6.06;86.73;150194.66;13060936;22;20019;-78
2023/12/20 10:36:03;;;;;;;2.03;1.08;;;;;;;5.99;86.85;150176.66;13061832;22;20015;-78
2023/12/20 10:41:05;;;;;;;1.23;0.40;;;;;;;6.13;85.25;150211.38;13061414;22;20038;-78
2023/12/20 10:46:08;;;;;;;2.70;0.60;;;;;;;6.24;85.00;150239.72;13059683;22;20018;-79
2023/12/20 10:51:11;;;;;;;1.85;0.60;;;;;;;6.25;83.66;150241.00;13058787;22;20023;-78
2023/12/20 10:56:17;;;;;;;2.58;0.70;;;;;;;6.25;81.27;150242.28;13059257;22;20035;-79
2023/12/20 11:01:20;;;;;;;1.40;0.77;;;;;;;6.20;82.44;150228.13;13058706;22;20026;-77
2023/12/20 11:06:54;;;;;;;1.98;0.60;;;;;;;6.51;80.00;150307.91;13074718;22;20070;-79
2023/12/20 11:12:08;;;;;;;2.80;0.60;;;;;;;7.73;73.67;150614.38;13075255;22;20068;-78
2023/12/20 11:17:14;;;;;;;1.30;0.52;;;;;;;7.61;73.50;150583.44;13069314;22;20022;-79
2023/12/20 11:22:15;;;;;;;1.55;0.77;;;;;;;6.99;76.00;150428.88;13065416;22;20019;-78
2023/12/20 11:27:18;;;;;;;2.45;0.60;;;;;;;6.97;76.55;150423.75;13060211;22;20021;-78
2023/12/20 11:32:29;;;;;;;1.08;0.60;;;;;;;7.17;73.61;150474.00;13033001;22;20464;-78
2023/12/20 11:37:38;;;;;;;2.38;0.85;;;;;;;6.62;76.48;150334.91;13034630;22;20102;-77
2023/12/20 11:42:49;;;;;;;1.38;0.80;;;;;;;6.46;78.96;150295.03;13058772;22;20407;-78
2023/12/20 11:47:53;;;;;;;0.98;0.50;;;;;;;6.47;78.51;150296.31;13062516;22;20019;-77
2023/12/20 11:52:55;;;;;;;2.42;0.60;;;;;;;6.62;77.87;150333.63;13036554;22;20015;-78
2023/12/20 11:57:57;;;;;;;2.30;0.80;;;;;;;7.07;75.29;150449.50;13008630;22;20019;-78
2023/12/20 12:02:59;;;;;;;2.22;0.82;;;;;;;7.04;75.23;150441.81;13063621;22;20019;-79
2023/12/20 12:08:02;;;;;;;0.73;0.50;;;;;;;7.25;73.91;150493.28;13059899;22;20023;-78
2023/12/20 12:13:05;;;;;;;2.67;1.00;;;;;;;7.34;73.16;150517.75;13057976;22;20015;-77
2023/12/20 12:18:07;;;;;;;1.33;0.70;;;;;;;7.16;73.29;150470.09;13053457;22;20015;-77
2023/12/20 12:23:09;;;;;;;3.40;0.70;;;;;;;7.36;72.61;150521.63;13053317;22;20069;-77
2023/12/20 12:28:11;;;;;;;0.50;0.50;;;;;;;7.07;73.34;150448.22;13041080;22;20069;-78
2023/12/20 12:33:12;;;;;;;6.22;0.70;;;;;;;6.79;74.67;150377.41;13057709;22;20022;-78
2023/12/20 12:38:15;;;;;;;0.98;0.60;;;;;;;6.68;74.36;150350.34;13031649;22;20035;-78
2023/12/20 12:43:17;;;;;;;1.27;0.60;;;;;;;6.65;76.36;150341.38;13060427;22;20065;-77
2023/12/20 12:48:19;;;;;;;1.52;0.52;;;;;;;6.57;75.68;150322.06;13056826;22;20026;-78
2023/12/20 12:53:21;;;;;;;1.38;0.47;;;;;;;6.42;76.40;150284.75;13063066;22;20094;-78
2023/12/20 12:58:22;;;;;;;2.20;0.63;;;;;;;6.29;77.66;150252.56;13055633;22;20015;-78
2023/12/20 13:03:24;;;;;;;1.17;0.60;;;;;;;6.28;77.59;150249.97;13054299;22;20019;-77
2023/12/20 13:08:26;;;;;;;1.95;0.50;;;;;;;6.34;77.42;150264.16;13055695;22;20460;-78
2023/12/20 13:13:28;;;;;;;1.50;0.73;;;;;;;6.38;76.61;150273.16;13059612;22;20408;-77
2023/12/20 13:18:30;;;;;;;0.85;0.50;;;;;;;6.36;77.16;150269.28;13066447;22;20025;-78
2023/12/20 13:23:32;;;;;;;2.35;2.15;;;;;;;6.36;76.49;150269.28;13038335;22;20019;-79
2023/12/20 13:28:34;;;;;;;0.95;0.40;;;;;;;6.37;75.55;150270.56;13065002;22;20015;-78
2023/12/20 13:33:36;;;;;;;1.50;0.60;;;;;;;6.48;75.41;150298.91;13059116;22;20026;-78
2023/12/20 13:38:37;;;;;;;1.60;0.60;;;;;;;6.52;75.12;150309.19;13058318;22;20348;-77
2023/12/20 13:43:39;;;;;;;1.25;0.55;;;;;;;6.40;75.40;150278.28;13030405;22;20099;-78
2023/12/20 13:48:41;;;;;;;1.95;0.43;;;;;;;6.38;75.72;150273.16;13056489;22;20090;-77
2023/12/20 13:53:43;;;;;;;0.50;0.50;;;;;;;6.26;74.83;150243.56;13057462;22;20011;-78
2023/12/20 13:58:46;;;;;;;1.02;0.40;;;;;;;6.12;76.61;150207.53;13057680;22;20080;-78
2023/12/20 14:03:48;;;;;;;1.30;0.50;;;;;;;6.17;76.67;150221.69;13056450;22;20011;-78
2023/12/20 14:08:50;;;;;;;1.95;0.50;;;;;;;6.15;76.72;150216.50;13057613;22;20518;-79
2023/12/20 14:13:51;;;;;;;1.60;0.60;;;;;;;6.38;74.67;150273.16;13061686;22;20075;-78
2023/12/20 14:18:57;;;;;;;1.10;0.50;;;;;;;6.26;74.65;150243.56;13061503;22;20016;-76
2023/12/20 14:23:59;;;;;;;0.85;0.60;;;;;;;6.29;74.16;150252.56;13063352;22;20024;-78
2023/12/20 14:29:00;;;;;;;0.82;0.38;;;;;;;6.27;74.72;150246.13;13058651;22;20103;-77
2023/12/20 14:34:03;;;;;;;1.90;0.60;;;;;;;6.23;75.90;150235.81;13032711;22;20038;-78
2023/12/20 14:39:05;;;;;;;0.85;0.32;;;;;;;6.10;76.37;150202.34;13060701;22;20019;-79
2023/12/20 14:44:07;;;;;;;2.47;0.40;;;;;;;6.00;76.19;150177.94;13061539;22;20050;-77
2023/12/20 14:49:09;;;;;;;1.25;0.45;;;;;;;6.12;75.67;150208.81;13061323;22;20552;-78
2023/12/20 14:54:11;;;;;;;0.73;0.30;;;;;;;6.12;75.83;150207.53;13059912;22;20345;-78
2023/12/20 14:59:13;;;;;;;0.98;0.45;;;;;;;6.17;75.99;150220.41;13060096;22;20019;-80
2023/12/20 15:04:15;;;;;;;1.08;0.57;;;;;;;6.10;76.20;150202.34;13058328;22;20091;-78
2023/12/20 15:09:16;;;;;;;0.50;0.30;;;;;;;6.06;77.47;150194.66;13059092;22;20072;-78
2023/12/20 15:14:19;;;;;;;0.55;0.40;;;;;;;6.03;77.48;150185.66;13006229;22;20079;-78
2023/12/20 15:19:21;;;;;;;1.45;0.40;;;;;;;5.91;77.96;150156.00;13058591;22;20395;-78
2023/12/20 15:24:28;;;;;;;0.88;0.50;;;;;;;6.03;77.33;150185.66;13055659;22;20036;-79
2023/12/20 15:29:30;;;;;;;1.38;0.40;;;;;;;5.92;78.21;150158.63;13029175;22;20133;-79
2023/12/20 15:34:32;;;;;;;0.80;0.38;;;;;;;5.96;77.71;150167.63;13060633;22;20035;-78
2023/12/20 15:39:34;;;;;;;0.82;0.43;;;;;;;5.89;78.22;150149.56;13062851;22;20057;-79
2023/12/20 15:44:36;;;;;;;0.70;0.30;;;;;;;6.00;78.09;150177.94;13058071;22;20300;-78
2023/12/20 15:49:38;;;;;;;0.98;0.43;;;;;;;6.11;77.69;150204.91;13032541;22;20101;-78
2023/12/20 15:54:41;;;;;;;0.85;0.40;;;;;;;5.99;79.05;150175.38;13059943;22;20518;-78
2023/12/20 15:59:43;;;;;;;0.77;0.50;;;;;;;6.02;79.06;150184.38;13067479;22;20484;-79
2023/12/20 16:04:45;;;;;;;0.73;0.60;;;;;;;6.09;78.83;150199.81;13070754;22;20039;-79
2023/12/20 16:09:47;;;;;;;1.70;0.75;;;;;;;6.05;79.68;150190.78;13058821;22;20027;-79
2023/12/20 16:14:48;;;;;;;1.02;0.60;;;;;;;6.02;79.84;150184.38;13060649;22;20061;-78
2023/12/20 16:19:51;;;;;;;0.90;0.63;;;;;;;5.89;81.29;150149.56;13034249;22;20101;-80
2023/12/20 16:24:53;;;;;;;1.55;0.90;;;;;;;5.99;80.32;150176.66;13064661;22;20030;-78
2023/12/20 16:29:55;;;;;;;1.20;0.40;;;;;;;5.99;80.34;150176.66;13073534;22;20019;-78
2023/12/20 16:34:57;;;;;;;0.45;0.40;;;;;;;5.95;80.79;150166.34;13069340;22;20031;-78
2023/12/20 16:39:58;;;;;;;1.25;0.70;;;;;;;5.98;81.26;150172.78;13060661;22;20019;-78
2023/12/20 16:45:00;;;;;;;0.70;0.70;;;;;;;5.91;81.53;150156.00;13059065;22;20520;-77
2023/12/20 16:50:05;;;;;;;1.02;0.50;;;;;;;5.81;82.30;150130.28;13059905;22;20045;-77
2023/12/20 16:55:09;;;;;;;1.30;0.50;;;;;;;5.95;81.31;150165.06;13055168;22;20022;-77
2023/12/20 17:00:11;;;;;;;2.67;0.45;;;;;;;5.95;80.96;150166.34;13058583;22;20019;-78
2023/12/20 17:05:13;;;;;;;0.77;0.40;;;;;;;5.91;81.98;150156.00;13058912;22;20035;-78
2023/12/20 17:10:15;;;;;;;1.48;0.50;;;;;;;5.84;82.74;150137.97;13100250;22;20463;-78
2023/12/20 17:15:17;;;;;;;1.08;0.60;;;;;;;5.85;83.83;150140.59;13106451;22;20027;-78
2023/12/20 17:20:18;;;;;;;1.27;0.70;;;;;;;5.87;84.90;150144.41;13107914;22;20011;-78
2023/12/20 17:25:21;;;;;;;1.63;0.68;;;;;;;5.78;89.05;150123.84;13094869;22;20030;-78
2023/12/20 17:30:23;;;;;;;1.15;0.60;;;;;;;5.66;89.95;150092.94;13060381;22;20069;-78
2023/12/20 17:35:25;;;;;;;2.55;1.15;;;;;;;5.47;92.84;150044.09;13056601;22;20036;-78
2023/12/20 17:40:26;;;;;;;1.30;1.00;;;;;;;5.32;95.74;150006.81;13058253;22;20015;-77
2023/12/20 17:45:28;;;;;;;1.67;0.88;;;;;;;5.44;96.12;150037.66;13061737;22;20090;-79
2023/12/20 17:50:30;;;;;;;1.25;0.60;;;;;;;5.39;97.87;150024.78;13063277;22;20026;-78
2023/12/20 17:55:32;;;;;;;1.05;0.82;;;;;;;5.25;100.00;149988.81;13063823;22;20090;-77
2023/12/20 18:00:35;;;;;;;2.08;1.23;;;;;;;5.18;100.00;149970.78;13070298;22;20030;-83
2023/12/20 18:05:37;;;;;;;3.47;0.80;;;;;;;5.15;100.00;149963.09;13075872;22;20022;-81
2023/12/20 18:10:38;;;;;;;3.75;1.90;;;;;;;5.01;100.00;149929.69;13050371;22;20068;-81
2023/12/20 18:15:40;;;;;;;2.45;1.30;;;;;;;4.96;100.00;149916.84;13056101;22;20040;-80
2023/12/20 18:20:42;;;;;;;4.57;0.90;;;;;;;4.83;100.00;149882.13;13074832;22;20015;-83
2023/12/20 18:25:44;;;;;;;1.65;1.08;;;;;;;4.79;100.00;149873.13;13076869;22;20124;-85
2023/12/20 18:30:46;;;;;;;1.58;0.80;;;;;;;4.75;100.00;149862.84;13081142;22;20049;-81
2023/12/20 18:35:47;;;;;;;1.58;1.10;;;;;;;4.66;100.00;149839.69;13080584;22;20064;-82
2023/12/20 18:40:49;;;;;;;2.03;1.30;;;;;;;4.70;100.00;149850.00;13080899;22;20015;-83
2023/12/20 18:45:52;;;;;;;4.32;2.13;;;;;;;4.59;100.00;149822.97;13057633;22;20019;-85
2023/12/20 18:50:54;;;;;;;4.72;2.40;;;;;;;4.68;100.00;149846.09;13083001;22;20035;-82
2023/12/20 18:55:56;;;;;;;2.30;1.98;;;;;;;4.66;100.00;149839.69;13072183;22;20090;-81
2023/12/20 19:01:00;;;;;;;1.70;1.27;;;;;;;4.71;100.00;149852.56;13103225;22;20021;-82
2023/12/20 19:06:02;;;;;;;3.10;1.73;;;;;;;4.58;100.00;149820.41;13102802;22;20023;-82
2023/12/20 19:11:04;;;;;;;3.33;2.10;;;;;;;4.71;100.00;149852.56;13111701;22;19999;-82
2023/12/20 19:16:06;;;;;;;4.35;1.98;;;;;;;4.50;100.00;149801.13;13074339;22;20011;-83
2023/12/20 19:21:08;;;;;;;3.25;2.35;;;;;;;4.61;100.00;149828.13;13100966;22;20003;-82
2023/12/20 19:26:12;;;;;;;4.63;2.40;;;;;;;4.61;100.00;149826.84;13101936;22;20034;-82
2023/12/20 19:31:14;;;;;;;2.58;1.40;;;;;;;4.88;100.00;149894.97;13099617;22;20057;-84
2023/12/20 19:36:16;;;;;;;2.63;1.83;;;;;;;4.69;100.00;149847.38;13093601;22;20023;-82
2023/12/20 19:41:18;;;;;;;2.00;1.45;;;;;;;4.71;100.00;149853.81;13087364;22;20071;-83
2023/12/20 19:46:19;;;;;;;1.38;1.25;;;;;;;4.64;100.00;149835.81;13086782;22;20015;-84
2023/12/20 19:51:24;;;;;;;2.83;1.10;;;;;;;4.75;100.00;149862.84;13058078;22;20453;-84
2023/12/20 19:56:26;;;;;;;2.50;0.75;;;;;;;4.94;100.00;149910.38;13086449;22;20015;-83
2023/12/20 20:01:28;;;;;;;1.52;1.00;;;;;;;4.86;100.00;149891.09;13062626;22;20019;-83
2023/12/20 20:06:30;;;;;;;4.15;0.90;;;;;;;4.80;100.00;149876.97;13088203;22;20457;-84
2023/12/20 20:11:32;;;;;;;1.08;0.80;;;;;;;4.81;100.00;149878.25;13086945;22;20023;-82
2023/12/20 20:16:36;;;;;;;2.08;0.70;;;;;;;4.92;100.00;149906.53;13089064;22;20011;-81
2023/12/20 20:21:38;;;;;;;0.70;0.70;;;;;;;4.89;100.00;149897.53;13062776;22;20070;-83
2023/12/20 20:26:40;;;;;;;1.35;0.90;;;;;;;4.97;100.00;149919.38;13089820;22;20060;-83
2023/12/20 20:31:41;;;;;;;0.50;0.50;;;;;;;5.00;100.00;149927.13;13062269;22;20053;-83
2023/12/20 20:36:43;;;;;;;1.95;0.80;;;;;;;5.07;100.00;149943.81;13088853;22;20041;-82
2023/12/20 20:41:45;;;;;;;0.77;0.50;;;;;;;5.09;100.00;149947.66;13057777;22;20038;-82
2023/12/20 20:46:48;;;;;;;0.73;0.73;;;;;;;5.19;100.00;149973.41;13088071;22;20022;-82
2023/12/20 20:51:51;;;;;;;0.70;0.50;;;;;;;5.26;99.77;149991.38;13086319;22;20026;-82
2023/12/20 20:56:52;;;;;;;0.50;0.40;;;;;;;5.28;100.00;149997.81;13086675;22;20409;-83
2023/12/20 21:01:55;;;;;;;0.38;0.32;;;;;;;5.24;99.73;149987.53;13086909;22;20075;-82
2023/12/20 21:06:57;;;;;;;0.32;0.32;;;;;;;5.13;100.00;149957.94;13080085;22;20413;-82
2023/12/20 21:11:58;;;;;;;0.50;0.40;;;;;;;5.18;99.03;149970.78;13077999;22;20019;-83
2023/12/20 21:17:00;;;;;;;1.98;0.52;;;;;;;5.17;99.24;149969.50;13080113;22;20026;-82
2023/12/20 21:22:02;;;;;;;0.40;0.40;;;;;;;5.17;98.25;149968.22;13077664;22;20023;-81
2023/12/20 21:27:04;;;;;;;0.30;0.30;;;;;;;5.21;97.10;149978.50;13075786;22;20019;-84
2023/12/20 21:32:06;;;;;;;1.20;0.40;;;;;;;5.26;95.79;149992.63;13021110;22;20034;-83
2023/12/20 21:37:07;;;;;;;0.60;0.50;;;;;;;5.32;95.57;150008.09;13050975;22;20090;-82
2023/12/20 21:42:09;;;;;;;0.50;0.40;;;;;;;5.47;93.48;150045.38;13075992;22;20022;-81
2023/12/20 21:47:11;;;;;;;1.02;0.40;;;;;;;5.54;92.80;150062.13;13078237;22;20039;-83
2023/12/20 21:52:14;;;;;;;1.00;0.40;;;;;;;5.51;93.84;150055.66;13049147;22;20027;-82
2023/12/20 21:57:19;;;;;;;0.40;0.40;;;;;;;5.54;92.90;150063.41;13050778;22;20015;-82
2023/12/20 22:02:21;;;;;;;0.95;0.20;;;;;;;5.66;92.13;150091.66;13074016;22;20015;-82
2023/12/20 22:07:23;;;;;;;0.98;0.20;;;;;;;5.72;90.53;150108.41;13077016;22;20019;-83
2023/12/20 22:12:25;;;;;;;1.65;0.43;;;;;;;5.75;89.92;150114.81;13081790;22;20020;-82
2023/12/20 22:17:26;;;;;;;0.57;0.20;;;;;;;5.67;91.04;150094.28;13073172;22;20018;-82
2023/12/20 22:22:29;;;;;;;0.32;0.28;;;;;;;5.67;91.07;150095.56;13068889;22;20080;-82
2023/12/20 22:27:31;;;;;;;0.57;0.43;;;;;;;5.81;89.49;150130.28;13070623;22;20012;-83
2023/12/20 22:32:33;;;;;;;0.55;0.40;;;;;;;5.73;91.24;150109.69;13052060;22;20400;-81
2023/12/20 22:37:35;;;;;;;0.35;0.20;;;;;;;5.73;92.70;150110.97;13052548;22;20007;-82
2023/12/20 22:42:36;;;;;;;0.20;0.20;;;;;;;5.71;93.78;150105.84;13078602;22;20016;-84
2023/12/20 22:47:39;;;;;;;1.30;0.40;;;;;;;5.77;92.96;150120.00;13085472;22;20032;-83
2023/12/20 22:52:41;;;;;;;0.43;0.43;;;;;;;5.64;94.74;150087.84;13082581;22;20019;-83
2023/12/20 22:57:42;;;;;;;0.63;0.30;;;;;;;5.71;93.62;150105.84;13046622;22;20026;-82
2023/12/20 23:02:45;;;;;;;0.40;0.20;;;;;;;5.75;92.75;150114.81;13072143;22;20015;-83
2023/12/20 23:07:47;;;;;;;0.52;0.20;;;;;;;5.82;91.90;150132.84;13081947;22;20059;-84
2023/12/20 23:12:49;;;;;;;0.80;0.35;;;;;;;5.82;92.16;150134.13;13077937;22;20021;-83
2023/12/20 23:17:52;;;;;;;0.40;0.20;;;;;;;5.80;93.51;150127.72;13077037;22;20011;-82